Asphalt Spring — V7YJ5 — position and weather

sailwx.info

Track history (hours):
 
Tides and Currents Weather Stations Pressure Air Temp Water Temp Dewpoint Dewpoint Depression Visibility Wind Speed Wind Dir Waves Ship Positions

Asphalt Spring

Last reported at 2018-Aug-16 14:09 UTC. Time now 2018-Aug-21 04:19 UTC.
Position N 36°57' W 076°22'.

Length 117 m; draft 6.9 m.

Type: Tanker. MMSI: 538004674.

Date/timePositionNaut miles runAvg speedWind from/ knotsBaromVisibWave heightAir tempDewpointWater temp
2018-Aug-16 14:09N 36°57' W 076°22'3 9.2
2018-Aug-16 13:53N 36°57' W 076°25'0 0.6
2018-Aug-16 13:22N 36°58' W 076°25'0 0.0
2018-Aug-16 12:58N 36°58' W 076°25'0 0.0
2018-Aug-16 11:03N 36°58' W 076°25'0 0.0
2018-Aug-16 10:42N 36°58' W 076°25'0 0.0
2018-Aug-16 10:30N 36°58' W 076°25'1 0.0
2018-Aug-15 17:51N 36°57' W 076°25'2 5.7
2018-Aug-15 17:29N 36°57' W 076°22'2 3.9
2018-Aug-15 17:00N 36°56' W 076°20'4 8.2
2018-Aug-15 16:31N 36°52' W 076°20'3 6.5
2018-Aug-15 16:00N 36°49' W 076°17'1 2.2
2018-Aug-15 15:30N 36°48' W 076°17'0 0.0
2018-Aug-15 15:01N 36°48' W 076°17'0 0.0
2018-Aug-15 14:30N 36°48' W 076°17'0 0.0
2018-Aug-15 14:00N 36°48' W 076°17'0 0.0
2018-Aug-15 13:30N 36°48' W 076°17'0 0.0
2018-Aug-15 13:00N 36°48' W 076°17'0 0.0
2018-Aug-15 12:31N 36°48' W 076°17'0 0.0
2018-Aug-15 12:01N 36°48' W 076°17'0 0.0
2018-Aug-15 11:31N 36°48' W 076°17'0 0.0
2018-Aug-15 11:00N 36°48' W 076°17'0 0.0
2018-Aug-15 10:30N 36°48' W 076°17'0 0.0
2018-Aug-15 10:00N 36°48' W 076°17'0 0.0
2018-Aug-15 09:31N 36°48' W 076°17'0 0.0
2018-Aug-15 09:01N 36°48' W 076°17'0 0.0
2018-Aug-15 08:31N 36°48' W 076°17'0 0.0
2018-Aug-15 08:00N 36°48' W 076°17'0 0.0
2018-Aug-15 07:30N 36°48' W 076°17'0 0.0
2018-Aug-15 07:01N 36°48' W 076°17'0 0.0
2018-Aug-15 06:30N 36°48' W 076°17'0 0.0
2018-Aug-15 06:01N 36°48' W 076°17'0 0.0
2018-Aug-15 05:31N 36°48' W 076°17'0 0.0
2018-Aug-15 05:01N 36°48' W 076°17'0 0.0
2018-Aug-15 04:30N 36°48' W 076°17'0 0.0
2018-Aug-15 04:00N 36°48' W 076°17'0 0.0
2018-Aug-15 03:31N 36°48' W 076°17'0 0.0
2018-Aug-15 03:01N 36°48' W 076°17'0 0.0
2018-Aug-15 02:31N 36°48' W 076°17'0 0.0
2018-Aug-15 02:00N 36°48' W 076°17'0 0.0
2018-Aug-15 01:31N 36°48' W 076°17'0 0.0
2018-Aug-15 01:01N 36°48' W 076°17'0 0.0
2018-Aug-15 00:31N 36°48' W 076°17'0 0.0
2018-Aug-15 00:01N 36°48' W 076°17'0 0.0
2018-Aug-14 23:30N 36°48' W 076°17'0 0.0
2018-Aug-14 23:00N 36°48' W 076°17'0 0.0
2018-Aug-14 22:30N 36°48' W 076°17'0 0.0
2018-Aug-14 22:00N 36°48' W 076°17'0 0.0
2018-Aug-14 21:30N 36°48' W 076°17'0 0.0
2018-Aug-14 21:00N 36°48' W 076°17'0 0.0
2018-Aug-14 20:31N 36°48' W 076°17'0 0.0
2018-Aug-14 20:00N 36°48' W 076°17'0 0.0
2018-Aug-14 19:30N 36°48' W 076°17'0 0.0
2018-Aug-14 19:00N 36°48' W 076°17'0 0.0
2018-Aug-14 18:30N 36°48' W 076°17'0 0.0
2018-Aug-14 18:00N 36°48' W 076°17'0 0.0
2018-Aug-14 17:31N 36°48' W 076°17'0 0.0
2018-Aug-14 17:00N 36°48' W 076°17'0 0.0
2018-Aug-14 16:30N 36°48' W 076°17'0 0.0
2018-Aug-14 16:00N 36°48' W 076°17'0 0.0
2018-Aug-14 15:31N 36°48' W 076°17'0 0.0
2018-Aug-14 15:01N 36°48' W 076°17'0 0.0
2018-Aug-14 14:30N 36°48' W 076°17'0 0.0
2018-Aug-14 14:00N 36°48' W 076°17'0 0.0
2018-Aug-14 13:30N 36°48' W 076°17'0 0.0
2018-Aug-14 13:01N 36°48' W 076°17'0 0.0
2018-Aug-14 12:30N 36°48' W 076°17'0 0.0
2018-Aug-14 12:00N 36°48' W 076°17'0 0.0
2018-Aug-14 11:31N 36°48' W 076°17'0 0.0
2018-Aug-14 11:00N 36°48' W 076°17'0 0.0
2018-Aug-14 10:31N 36°48' W 076°17'0 0.0
2018-Aug-14 10:00N 36°48' W 076°17'0 0.0
2018-Aug-14 09:31N 36°48' W 076°17'0 0.0
2018-Aug-14 09:01N 36°48' W 076°17'0 0.0
2018-Aug-14 08:30N 36°48' W 076°17'0 0.0
2018-Aug-14 08:01N 36°48' W 076°17'0 0.0
2018-Aug-14 07:31N 36°48' W 076°17'0 0.0
2018-Aug-14 07:01N 36°48' W 076°17'0 0.0
2018-Aug-14 06:31N 36°48' W 076°17'0 0.0
2018-Aug-14 06:01N 36°48' W 076°17'0 0.0
2018-Aug-14 05:31N 36°48' W 076°17'0 0.5
2018-Aug-14 05:01N 36°48' W 076°17'2 4.9
2018-Aug-14 04:30N 36°51' W 076°18'4 8.4
2018-Aug-14 04:01N 36°55' W 076°20'  
Track history (hours):
 
Tides and Currents Weather Stations Pressure Air Temp Water Temp Dewpoint Dewpoint Depression Visibility Wind Speed Wind Dir Waves Ship Positions

Asphalt Spring

Last reported at 2018-Aug-16 14:09 UTC. Time now 2018-Aug-21 04:19 UTC.
Position N 36°57' W 076°22'.

Length 117 m; draft 6.9 m.

Type: Tanker. MMSI: 538004674.

Date/timePositionNaut miles runAvg speedWind from/ knotsBaromVisibWave heightAir tempDewpointWater temp
2018-Aug-16 14:09N 36°57' W 076°22'3 9.2
2018-Aug-16 13:53N 36°57' W 076°25'0 0.6
2018-Aug-16 13:22N 36°58' W 076°25'0 0.0
2018-Aug-16 12:58N 36°58' W 076°25'0 0.0
2018-Aug-16 11:03N 36°58' W 076°25'0 0.0
2018-Aug-16 10:42N 36°58' W 076°25'0 0.0
2018-Aug-16 10:30N 36°58' W 076°25'1 0.0
2018-Aug-15 17:51N 36°57' W 076°25'2 5.7
2018-Aug-15 17:29N 36°57' W 076°22'2 3.9
2018-Aug-15 17:00N 36°56' W 076°20'4 8.2
2018-Aug-15 16:31N 36°52' W 076°20'3 6.5
2018-Aug-15 16:00N 36°49' W 076°17'1 2.2
2018-Aug-15 15:30N 36°48' W 076°17'0 0.0
2018-Aug-15 15:01N 36°48' W 076°17'0 0.0
2018-Aug-15 14:30N 36°48' W 076°17'0 0.0
2018-Aug-15 14:00N 36°48' W 076°17'0 0.0
2018-Aug-15 13:30N 36°48' W 076°17'0 0.0
2018-Aug-15 13:00N 36°48' W 076°17'0 0.0
2018-Aug-15 12:31N 36°48' W 076°17'0 0.0
2018-Aug-15 12:01N 36°48' W 076°17'0 0.0
2018-Aug-15 11:31N 36°48' W 076°17'0 0.0
2018-Aug-15 11:00N 36°48' W 076°17'0 0.0
2018-Aug-15 10:30N 36°48' W 076°17'0 0.0
2018-Aug-15 10:00N 36°48' W 076°17'0 0.0
2018-Aug-15 09:31N 36°48' W 076°17'0 0.0
2018-Aug-15 09:01N 36°48' W 076°17'0 0.0
2018-Aug-15 08:31N 36°48' W 076°17'0 0.0
2018-Aug-15 08:00N 36°48' W 076°17'0 0.0
2018-Aug-15 07:30N 36°48' W 076°17'0 0.0
2018-Aug-15 07:01N 36°48' W 076°17'0 0.0
2018-Aug-15 06:30N 36°48' W 076°17'0 0.0
2018-Aug-15 06:01N 36°48' W 076°17'0 0.0
2018-Aug-15 05:31N 36°48' W 076°17'0 0.0
2018-Aug-15 05:01N 36°48' W 076°17'0 0.0
2018-Aug-15 04:30N 36°48' W 076°17'0 0.0
2018-Aug-15 04:00N 36°48' W 076°17'0 0.0
2018-Aug-15 03:31N 36°48' W 076°17'0 0.0
2018-Aug-15 03:01N 36°48' W 076°17'0 0.0
2018-Aug-15 02:31N 36°48' W 076°17'0 0.0
2018-Aug-15 02:00N 36°48' W 076°17'0 0.0
2018-Aug-15 01:31N 36°48' W 076°17'0 0.0
2018-Aug-15 01:01N 36°48' W 076°17'0 0.0
2018-Aug-15 00:31N 36°48' W 076°17'0 0.0
2018-Aug-15 00:01N 36°48' W 076°17'0 0.0
2018-Aug-14 23:30N 36°48' W 076°17'0 0.0
2018-Aug-14 23:00N 36°48' W 076°17'0 0.0
2018-Aug-14 22:30N 36°48' W 076°17'0 0.0
2018-Aug-14 22:00N 36°48' W 076°17'0 0.0
2018-Aug-14 21:30N 36°48' W 076°17'0 0.0
2018-Aug-14 21:00N 36°48' W 076°17'0 0.0
2018-Aug-14 20:31N 36°48' W 076°17'0 0.0
2018-Aug-14 20:00N 36°48' W 076°17'0 0.0
2018-Aug-14 19:30N 36°48' W 076°17'0 0.0
2018-Aug-14 19:00N 36°48' W 076°17'0 0.0
2018-Aug-14 18:30N 36°48' W 076°17'0 0.0
2018-Aug-14 18:00N 36°48' W 076°17'0 0.0
2018-Aug-14 17:31N 36°48' W 076°17'0 0.0
2018-Aug-14 17:00N 36°48' W 076°17'0 0.0
2018-Aug-14 16:30N 36°48' W 076°17'0 0.0
2018-Aug-14 16:00N 36°48' W 076°17'0 0.0
2018-Aug-14 15:31N 36°48' W 076°17'0 0.0
2018-Aug-14 15:01N 36°48' W 076°17'0 0.0
2018-Aug-14 14:30N 36°48' W 076°17'0 0.0
2018-Aug-14 14:00N 36°48' W 076°17'0 0.0
2018-Aug-14 13:30N 36°48' W 076°17'0 0.0
2018-Aug-14 13:01N 36°48' W 076°17'0 0.0
2018-Aug-14 12:30N 36°48' W 076°17'0 0.0
2018-Aug-14 12:00N 36°48' W 076°17'0 0.0
2018-Aug-14 11:31N 36°48' W 076°17'0 0.0
2018-Aug-14 11:00N 36°48' W 076°17'0 0.0
2018-Aug-14 10:31N 36°48' W 076°17'0 0.0
2018-Aug-14 10:00N 36°48' W 076°17'0 0.0
2018-Aug-14 09:31N 36°48' W 076°17'0 0.0
2018-Aug-14 09:01N 36°48' W 076°17'0 0.0
2018-Aug-14 08:30N 36°48' W 076°17'0 0.0
2018-Aug-14 08:01N 36°48' W 076°17'0 0.0
2018-Aug-14 07:31N 36°48' W 076°17'0 0.0
2018-Aug-14 07:01N 36°48' W 076°17'0 0.0
2018-Aug-14 06:31N 36°48' W 076°17'0 0.0
2018-Aug-14 06:01N 36°48' W 076°17'0 0.0
2018-Aug-14 05:31N 36°48' W 076°17'0 0.5
2018-Aug-14 05:01N 36°48' W 076°17'2 4.9
2018-Aug-14 04:30N 36°51' W 076°18'4 8.4
2018-Aug-14 04:01N 36°55' W 076°20'  

Dump ship's entire track history